createdAt,value
2019-05-11T00:01:25.716Z,10.40
2019-05-11T00:03:54.558Z,10.50
2019-05-11T00:06:23.345Z,10.70
2019-05-11T00:08:52.474Z,10.70
2019-05-11T00:11:21.242Z,10.70
2019-05-11T00:13:50.123Z,10.60
2019-05-11T00:16:19.282Z,10.50
2019-05-11T00:18:48.271Z,10.40
2019-05-11T00:21:17.078Z,10.30
2019-05-11T00:23:46.175Z,10.30
2019-05-11T00:26:15.174Z,10.20
2019-05-11T00:28:43.966Z,10.20
2019-05-11T00:31:12.778Z,10.10
2019-05-11T00:33:41.791Z,10.10
2019-05-11T00:36:10.555Z,10.20
2019-05-11T00:38:39.375Z,10.10
2019-05-11T00:41:08.243Z,10.20
2019-05-11T00:43:37.142Z,10.20
2019-05-11T00:46:07.999Z,10.30
2019-05-11T00:48:36.799Z,10.20
2019-05-11T00:51:05.631Z,10.30
2019-05-11T00:53:34.596Z,10.30
2019-05-11T00:56:03.545Z,10.30
2019-05-11T00:58:32.493Z,10.20
2019-05-11T01:01:01.304Z,10.10
2019-05-11T01:03:30.174Z,10.20
2019-05-11T01:05:59.057Z,10.10
2019-05-11T01:08:27.998Z,10.10
2019-05-11T01:10:57.118Z,10.10
2019-05-11T01:13:26.373Z,10.10
2019-05-11T01:15:55.174Z,10.00
2019-05-11T01:18:24.070Z,10.10
2019-05-11T01:20:53.290Z,10.20
2019-05-11T01:23:22.074Z,10.20
2019-05-11T01:25:50.864Z,10.10
2019-05-11T01:28:19.711Z,10.10
2019-05-11T01:30:48.597Z,10.00
2019-05-11T01:33:17.387Z,10.00
2019-05-11T01:35:46.426Z,10.00
2019-05-11T01:38:15.328Z,10.00
2019-05-11T01:40:57.694Z,10.00
2019-05-11T01:43:14.923Z,10.00
2019-05-11T01:45:43.807Z,9.90
2019-05-11T01:48:12.634Z,9.90
2019-05-11T01:50:41.449Z,9.90
2019-05-11T01:53:10.730Z,9.90
2019-05-11T01:55:39.586Z,9.90
2019-05-11T01:58:08.419Z,9.90
2019-05-11T02:00:37.298Z,9.90
2019-05-11T02:03:06.180Z,9.80
2019-05-11T02:05:35.169Z,9.80
2019-05-11T02:08:04.169Z,10.00
2019-05-11T02:10:33.108Z,10.00
2019-05-11T02:13:01.966Z,9.90
2019-05-11T02:15:30.942Z,9.90
2019-05-11T02:17:59.834Z,9.90
2019-05-11T02:20:28.898Z,9.90
2019-05-11T02:22:57.988Z,9.90
2019-05-11T02:25:27.147Z,10.00
2019-05-11T02:27:56.270Z,10.10
2019-05-11T02:30:25.200Z,10.10
2019-05-11T02:32:53.962Z,10.00
2019-05-11T02:35:22.764Z,10.00
2019-05-11T02:37:51.603Z,9.90
2019-05-11T02:40:20.875Z,9.90
2019-05-11T02:42:49.724Z,9.80
2019-05-11T02:45:37.819Z,9.80
2019-05-11T02:48:06.696Z,9.80
2019-05-11T02:50:36.738Z,9.80
2019-05-11T02:53:05.753Z,9.80
2019-05-11T02:55:35.614Z,9.90
2019-05-11T02:58:05.914Z,10.00
2019-05-11T03:00:38.359Z,10.00
2019-05-11T03:03:07.313Z,10.00
2019-05-11T03:05:36.477Z,9.90
2019-05-11T03:08:05.459Z,9.90
2019-05-11T03:10:34.296Z,10.00
2019-05-11T03:13:03.152Z,10.00
2019-05-11T03:15:32.084Z,10.00
2019-05-11T03:18:01.211Z,10.00
2019-05-11T03:20:30.166Z,10.00
2019-05-11T03:22:59.083Z,9.90
2019-05-11T03:25:27.968Z,9.90
2019-05-11T03:27:56.974Z,9.90
2019-05-11T03:30:26.116Z,9.80
2019-05-11T03:32:54.998Z,9.80
2019-05-11T03:35:23.884Z,9.80
2019-05-11T03:37:53.046Z,9.90
2019-05-11T03:40:21.916Z,9.90
2019-05-11T03:42:50.776Z,9.90
2019-05-11T03:45:19.642Z,10.00
2019-05-11T03:47:48.499Z,10.00
2019-05-11T03:50:17.507Z,10.00
2019-05-11T03:52:46.383Z,10.00
2019-05-11T03:55:15.323Z,9.90
2019-05-11T03:57:44.392Z,9.90
2019-05-11T04:00:13.387Z,9.80
2019-05-11T04:02:42.277Z,9.90
2019-05-11T04:05:11.120Z,10.00
2019-05-11T04:07:40.150Z,10.10
2019-05-11T04:10:09.528Z,10.10
2019-05-11T04:12:38.364Z,10.00
2019-05-11T04:15:08.918Z,10.00
2019-05-11T04:17:37.775Z,10.00
2019-05-11T04:20:07.251Z,10.10
2019-05-11T04:22:36.114Z,10.10
2019-05-11T04:25:05.682Z,10.10
2019-05-11T04:27:34.486Z,10.20
2019-05-11T04:30:03.381Z,10.20
2019-05-11T04:32:32.199Z,10.20
2019-05-11T04:35:01.022Z,10.20
2019-05-11T04:37:29.790Z,10.10
2019-05-11T04:39:58.699Z,10.20
2019-05-11T04:42:27.548Z,10.10
2019-05-11T04:44:56.367Z,10.20
2019-05-11T04:47:25.170Z,10.30
2019-05-11T04:49:53.975Z,10.40
2019-05-11T04:52:22.793Z,10.40
2019-05-11T04:54:51.663Z,10.50
2019-05-11T04:57:20.451Z,10.60
2019-05-11T04:59:49.517Z,10.50
2019-05-11T05:02:18.303Z,10.50
2019-05-11T05:04:47.570Z,10.50
2019-05-11T05:07:16.746Z,10.40
2019-05-11T05:09:45.696Z,10.40
2019-05-11T05:12:15.685Z,10.50
2019-05-11T05:14:45.067Z,10.50
2019-05-11T05:17:13.862Z,10.60
2019-05-11T05:19:42.674Z,10.50
2019-05-11T05:22:11.990Z,10.50
2019-05-11T05:24:40.788Z,10.60
2019-05-11T05:27:10.123Z,10.70
2019-05-11T05:29:39.365Z,10.60
2019-05-11T05:32:08.531Z,10.60
2019-05-11T05:34:37.659Z,10.60
2019-05-11T05:37:06.519Z,10.60
2019-05-11T05:39:35.299Z,10.70
2019-05-11T05:42:04.119Z,10.70
2019-05-11T05:44:32.981Z,10.70
2019-05-11T05:47:01.836Z,10.80
2019-05-11T05:49:30.650Z,10.80
2019-05-11T05:51:59.451Z,10.80
2019-05-11T05:54:28.334Z,10.80
2019-05-11T05:56:57.527Z,10.90
2019-05-11T05:59:26.638Z,11.00
2019-05-11T06:01:55.539Z,10.90
2019-05-11T06:04:24.368Z,10.90
2019-05-11T06:06:53.407Z,11.00
2019-05-11T06:09:22.179Z,11.00
2019-05-11T06:11:51.043Z,11.10
2019-05-11T06:14:19.887Z,11.10
2019-05-11T06:16:48.805Z,11.10
2019-05-11T06:19:17.771Z,11.10
2019-05-11T06:21:46.574Z,11.20
2019-05-11T06:24:15.680Z,11.30
2019-05-11T06:26:44.514Z,11.30
2019-05-11T06:29:13.471Z,11.60
2019-05-11T06:31:42.612Z,11.70
2019-05-11T06:34:11.445Z,11.90
2019-05-11T06:36:40.202Z,12.10
2019-05-11T06:39:09.149Z,12.30
2019-05-11T06:41:38.076Z,12.60
2019-05-11T06:44:07.014Z,12.70
2019-05-11T06:46:35.777Z,12.90
2019-05-11T06:49:04.659Z,13.10
2019-05-11T06:51:33.794Z,13.30
2019-05-11T06:54:02.827Z,13.40
2019-05-11T06:56:31.607Z,13.50
2019-05-11T06:59:00.442Z,13.50
2019-05-11T07:01:29.221Z,13.60
2019-05-11T07:03:58.045Z,13.80
2019-05-11T07:06:30.333Z,14.00
2019-05-11T07:08:57.450Z,14.10
2019-05-11T07:11:26.416Z,14.20
2019-05-11T07:13:55.314Z,14.20
2019-05-11T07:16:24.191Z,14.40
2019-05-11T07:18:52.986Z,14.40
2019-05-11T07:21:21.961Z,14.50
2019-05-11T07:23:50.790Z,14.60
2019-05-11T07:26:19.758Z,14.60
2019-05-11T07:28:48.607Z,14.60
2019-05-11T07:31:17.483Z,14.50
2019-05-11T07:33:48.494Z,14.70
2019-05-11T07:36:17.787Z,14.90
2019-05-11T07:38:48.696Z,15.00
2019-05-11T07:41:17.709Z,15.20
2019-05-11T07:43:48.453Z,15.20
2019-05-11T07:46:18.351Z,15.30
2019-05-11T07:48:48.066Z,15.20
2019-05-11T07:51:18.259Z,15.30
2019-05-11T07:53:48.663Z,15.30
2019-05-11T07:56:18.714Z,15.40
2019-05-11T07:58:48.235Z,15.60
2019-05-11T08:01:18.912Z,15.70
2019-05-11T08:03:48.498Z,15.80
2019-05-11T08:06:18.321Z,15.90
2019-05-11T08:08:49.088Z,15.90
2019-05-11T08:11:18.402Z,16.00
2019-05-11T08:13:48.204Z,15.80
2019-05-11T08:16:18.563Z,15.80
2019-05-11T08:18:48.387Z,15.70
2019-05-11T08:21:17.978Z,16.00
2019-05-11T08:23:48.306Z,16.40
2019-05-11T08:26:19.066Z,16.80
2019-05-11T08:28:48.611Z,17.20
2019-05-11T08:31:18.674Z,17.70
2019-05-11T08:33:48.259Z,18.00
2019-05-11T08:36:18.376Z,17.90
2019-05-11T08:38:48.305Z,17.90
2019-05-11T08:41:18.425Z,17.70
2019-05-11T08:43:48.158Z,18.00
2019-05-11T08:46:18.498Z,18.00
2019-05-11T08:48:48.014Z,18.00
2019-05-11T08:51:18.729Z,18.30
2019-05-11T08:53:48.167Z,18.60
2019-05-11T08:56:18.853Z,19.00
2019-05-11T08:58:49.173Z,19.10
2019-05-11T09:01:18.606Z,19.10
2019-05-11T09:03:47.930Z,19.30
2019-05-11T09:06:17.893Z,19.00
2019-05-11T09:08:49.328Z,19.00
2019-05-11T09:11:19.111Z,19.60
2019-05-11T09:13:48.956Z,19.20
2019-05-11T09:16:19.019Z,18.80
2019-05-11T09:18:48.222Z,18.80
2019-05-11T09:21:19.013Z,19.30
2019-05-11T09:23:48.571Z,20.00
2019-05-11T09:26:18.351Z,20.70
2019-05-11T09:28:47.845Z,20.50
2019-05-11T09:31:18.633Z,20.30
2019-05-11T09:33:48.040Z,20.30
2019-05-11T09:36:18.040Z,20.60
2019-05-11T09:38:48.910Z,21.10
2019-05-11T09:41:18.298Z,20.80
2019-05-11T09:43:48.307Z,20.80
2019-05-11T09:46:18.780Z,20.60
2019-05-11T09:48:48.470Z,19.90
2019-05-11T09:51:18.425Z,19.50
2019-05-11T09:53:48.507Z,19.30
2019-05-11T09:56:18.276Z,19.30
2019-05-11T09:58:48.166Z,19.30
2019-05-11T10:01:18.264Z,19.20
2019-05-11T10:03:48.279Z,19.10
2019-05-11T10:06:18.981Z,19.00
2019-05-11T10:08:48.678Z,19.00
2019-05-11T10:11:19.055Z,18.80
2019-05-11T10:13:48.460Z,18.80
2019-05-11T10:16:18.042Z,18.70
2019-05-11T10:18:49.237Z,18.80
2019-05-11T10:21:18.854Z,18.90
2019-05-11T10:23:48.873Z,18.80
2019-05-11T10:26:18.955Z,18.70
2019-05-11T10:28:48.399Z,18.50
2019-05-11T10:31:18.105Z,18.50
2019-05-11T10:33:48.956Z,18.20
2019-05-11T10:36:18.798Z,18.00
2019-05-11T10:38:48.854Z,18.00
2019-05-11T10:41:18.473Z,18.00
2019-05-11T10:43:48.990Z,18.20
2019-05-11T10:46:23.060Z,18.00
2019-05-11T10:48:48.698Z,17.90
2019-05-11T10:51:18.461Z,17.70
2019-05-11T10:53:51.619Z,17.60
2019-05-11T10:56:18.147Z,17.40
2019-05-11T10:58:48.188Z,17.40
2019-05-11T11:01:18.226Z,17.20
2019-05-11T11:03:48.335Z,17.20
2019-05-11T11:06:18.814Z,17.20
2019-05-11T11:08:48.643Z,17.30
2019-05-11T11:11:18.664Z,17.20
2019-05-11T11:13:48.118Z,17.10
2019-05-11T11:16:32.802Z,16.90
2019-05-11T11:18:48.676Z,16.80
2019-05-11T11:21:22.630Z,16.80
2019-05-11T11:23:48.343Z,16.90
2019-05-11T11:26:25.087Z,17.00
2019-05-11T11:28:53.899Z,17.00
2019-05-11T11:31:22.696Z,17.00
2019-05-11T11:33:51.775Z,17.10
2019-05-11T11:36:20.606Z,17.20
2019-05-11T11:38:49.456Z,17.00
2019-05-11T11:41:18.804Z,16.70
2019-05-11T11:43:48.402Z,16.60
2019-05-11T11:46:18.788Z,16.60
2019-05-11T11:48:49.206Z,16.70
2019-05-11T11:51:18.865Z,16.90
2019-05-11T11:53:48.180Z,17.10
2019-05-11T11:56:19.175Z,17.40
2019-05-11T11:58:48.811Z,17.80
2019-05-11T12:01:19.014Z,18.00
2019-05-11T12:03:49.003Z,18.00
2019-05-11T12:06:18.335Z,18.30
2019-05-11T12:08:49.684Z,18.30
2019-05-11T12:11:18.956Z,18.20
2019-05-11T12:13:47.956Z,18.60
2019-05-11T12:16:18.130Z,18.60
2019-05-11T12:18:48.644Z,18.50
2019-05-11T12:21:18.563Z,18.80
2019-05-11T12:23:48.557Z,18.70
2019-05-11T12:26:18.030Z,18.20
2019-05-11T12:28:48.982Z,17.80
2019-05-11T12:31:18.429Z,17.70
2019-05-11T12:33:48.503Z,17.50
2019-05-11T12:36:18.704Z,17.30
2019-05-11T12:38:48.865Z,17.20
2019-05-11T12:41:18.990Z,17.20
2019-05-11T12:43:49.064Z,17.70
2019-05-11T12:46:18.962Z,18.10
2019-05-11T12:48:48.803Z,18.30
2019-05-11T12:51:18.664Z,18.30
2019-05-11T12:53:47.934Z,18.10
2019-05-11T12:56:18.983Z,18.20
2019-05-11T12:58:49.145Z,18.70
2019-05-11T13:01:18.847Z,19.10
2019-05-11T13:03:49.529Z,19.80
2019-05-11T13:06:19.223Z,20.40
2019-05-11T13:08:48.402Z,21.10
2019-05-11T13:11:18.674Z,21.60
2019-05-11T13:13:48.400Z,22.30
2019-05-11T13:16:18.372Z,22.20
2019-05-11T13:18:48.736Z,21.30
2019-05-11T13:21:18.365Z,20.90
2019-05-11T13:23:48.927Z,20.70
2019-05-11T13:26:18.259Z,20.70
2019-05-11T13:28:48.452Z,20.60
2019-05-11T13:31:18.740Z,20.40
2019-05-11T13:33:48.280Z,20.10
2019-05-11T13:36:18.539Z,19.60
2019-05-11T13:38:48.288Z,19.20
2019-05-11T13:41:18.741Z,18.60
2019-05-11T13:43:48.847Z,18.50
2019-05-11T13:46:18.169Z,18.30
2019-05-11T13:48:47.739Z,18.10
2019-05-11T13:51:18.194Z,17.90
2019-05-11T13:53:48.169Z,17.80
2019-05-11T13:56:18.318Z,17.70
2019-05-11T13:58:48.842Z,17.70
2019-05-11T14:01:18.401Z,17.70
2019-05-11T14:03:48.325Z,17.80
2019-05-11T14:06:18.493Z,17.40
2019-05-11T14:11:18.468Z,16.90
2019-05-11T14:13:48.178Z,16.90
2019-05-11T14:16:18.558Z,16.80
2019-05-11T14:18:48.855Z,16.60
2019-05-11T14:21:18.641Z,16.50
2019-05-11T14:23:48.406Z,16.40
2019-05-11T14:26:19.159Z,16.30
2019-05-11T14:28:48.278Z,16.30
2019-05-11T14:31:18.871Z,16.20
2019-05-11T14:32:21.068Z,17.10
2019-05-11T14:33:48.843Z,16.20
2019-05-11T14:36:18.589Z,16.10
2019-05-11T14:38:48.705Z,16.20
2019-05-11T14:41:18.349Z,16.30
2019-05-11T14:43:49.037Z,16.30
2019-05-11T14:46:18.280Z,16.20
2019-05-11T14:48:48.170Z,16.20
2019-05-11T14:51:18.038Z,16.10
2019-05-11T14:53:48.215Z,16.10
2019-05-11T14:56:18.946Z,16.00
2019-05-11T14:58:49.209Z,16.00
2019-05-11T15:01:18.572Z,15.90
2019-05-11T15:03:48.683Z,16.00
2019-05-11T15:06:18.804Z,15.90
2019-05-11T15:08:48.379Z,15.90
2019-05-11T15:11:19.189Z,16.00
2019-05-11T15:13:48.840Z,16.00
2019-05-11T15:16:18.707Z,15.90
2019-05-11T15:18:48.598Z,15.90
2019-05-11T15:21:18.958Z,15.80
2019-05-11T15:23:48.351Z,15.70
2019-05-11T15:26:18.683Z,15.60
2019-05-11T15:28:48.686Z,15.40
2019-05-11T15:31:22.152Z,15.30
2019-05-11T15:33:49.021Z,15.20
2019-05-11T15:36:19.336Z,15.10
2019-05-11T15:38:48.679Z,15.00
2019-05-11T15:41:17.878Z,15.00
2019-05-11T15:43:47.952Z,15.00
2019-05-11T15:46:19.575Z,14.90
2019-05-11T15:48:57.838Z,14.70
2019-05-11T15:51:18.878Z,14.60
2019-05-11T15:53:50.259Z,14.40
2019-05-11T15:56:18.984Z,14.10
2019-05-11T15:58:48.553Z,13.90
2019-05-11T16:01:18.572Z,13.80
2019-05-11T16:03:49.992Z,13.70
2019-05-11T16:06:18.724Z,13.60
2019-05-11T16:08:47.704Z,13.60
2019-05-11T16:11:18.120Z,13.60
2019-05-11T16:13:48.392Z,13.60
2019-05-11T16:16:17.487Z,13.50
2019-05-11T16:18:48.381Z,13.60
2019-05-11T16:21:18.176Z,13.60
2019-05-11T16:23:47.955Z,13.60
2019-05-11T16:26:17.609Z,13.60
2019-05-11T16:28:47.698Z,13.60
2019-05-11T16:31:17.993Z,13.60
2019-05-11T16:33:48.427Z,13.50
2019-05-11T16:36:18.009Z,13.20
2019-05-11T16:38:48.335Z,12.80
2019-05-11T16:41:18.272Z,12.30
2019-05-11T16:43:48.037Z,11.70
2019-05-11T16:46:17.719Z,11.40
2019-05-11T16:48:46.668Z,11.00
2019-05-11T16:51:17.601Z,10.70
2019-05-11T16:53:47.943Z,10.60
2019-05-11T16:56:16.583Z,10.40
2019-05-11T16:58:48.490Z,10.40
2019-05-11T17:01:18.821Z,10.30
2019-05-11T17:03:48.214Z,10.30
2019-05-11T17:06:19.526Z,10.30
2019-05-11T17:08:48.693Z,10.20
2019-05-11T17:11:18.611Z,10.10
2019-05-11T17:13:48.468Z,10.10
2019-05-11T17:16:17.908Z,10.00
2019-05-11T17:18:48.430Z,10.00
2019-05-11T17:21:18.367Z,10.00
2019-05-11T17:23:48.773Z,9.90
2019-05-11T17:26:18.971Z,9.90
2019-05-11T17:28:48.970Z,9.90
2019-05-11T17:31:18.808Z,9.90
2019-05-11T17:33:47.892Z,9.90
2019-05-11T17:36:18.701Z,10.00
2019-05-11T17:38:47.999Z,10.00
2019-05-11T17:41:16.918Z,10.10
2019-05-11T17:43:47.835Z,10.10
2019-05-11T17:46:18.425Z,10.20
2019-05-11T17:48:47.148Z,10.10
2019-05-11T17:51:21.857Z,10.10
2019-05-11T17:53:48.268Z,10.00
2019-05-11T17:56:17.162Z,10.00
2019-05-11T17:58:48.171Z,9.90
2019-05-11T18:01:18.688Z,10.00
2019-05-11T18:03:47.595Z,10.00
2019-05-11T18:06:18.444Z,9.90
2019-05-11T18:08:47.914Z,9.90
2019-05-11T18:11:18.537Z,9.90
2019-05-11T18:13:48.232Z,9.90
2019-05-11T18:16:18.682Z,9.90
2019-05-11T18:18:48.384Z,10.00
2019-05-11T18:21:18.900Z,10.00
2019-05-11T18:23:48.204Z,10.00
2019-05-11T18:26:18.109Z,10.00
2019-05-11T18:28:48.267Z,10.00
2019-05-11T18:31:18.123Z,10.00
2019-05-11T18:33:48.721Z,10.00
2019-05-11T18:36:18.329Z,9.90
2019-05-11T18:38:48.744Z,9.90
2019-05-11T18:41:17.810Z,9.90
2019-05-11T18:43:48.328Z,9.90
2019-05-11T18:46:17.325Z,9.80
2019-05-11T18:48:48.531Z,9.80
2019-05-11T18:51:17.045Z,9.80
2019-05-11T18:53:48.228Z,9.90
2019-05-11T18:56:18.142Z,9.80
2019-05-11T18:58:47.773Z,9.80
2019-05-11T19:01:17.833Z,9.70
2019-05-11T19:03:47.841Z,9.70
2019-05-11T19:06:18.413Z,9.70
2019-05-11T19:08:51.034Z,9.70
2019-05-11T19:11:19.815Z,9.70
2019-05-11T19:13:48.661Z,9.70
2019-05-11T19:16:18.751Z,9.70
2019-05-11T19:18:48.091Z,9.70
2019-05-11T19:21:17.987Z,9.70
2019-05-11T19:23:48.655Z,9.70
2019-05-11T19:26:18.270Z,9.70
2019-05-11T19:28:47.222Z,9.70
2019-05-11T19:31:18.917Z,9.70
2019-05-11T19:33:48.745Z,9.70
2019-05-11T19:36:17.098Z,9.60
2019-05-11T19:38:47.875Z,9.60
2019-05-11T19:41:18.539Z,9.50
2019-05-11T19:43:48.608Z,9.50
2019-05-11T19:46:18.369Z,9.50
2019-05-11T19:48:47.555Z,9.50
2019-05-11T19:51:18.292Z,9.50
2019-05-11T19:53:48.376Z,9.60
2019-05-11T19:56:18.280Z,9.60
2019-05-11T19:58:48.525Z,9.60
2019-05-11T20:01:18.803Z,9.60
2019-05-11T20:03:47.842Z,9.50
2019-05-11T20:06:16.702Z,9.50
2019-05-11T20:08:45.502Z,9.50
2019-05-11T20:11:14.338Z,9.50
2019-05-11T20:13:43.548Z,9.60
2019-05-11T20:16:12.348Z,9.70
2019-05-11T20:18:41.140Z,9.60
2019-05-11T20:21:19.319Z,9.60
2019-05-11T20:23:40.507Z,9.70
2019-05-11T20:26:09.330Z,9.70
2019-05-11T20:28:38.119Z,9.70
2019-05-11T20:31:08.035Z,9.70
2019-05-11T20:33:38.582Z,9.70
2019-05-11T20:36:08.703Z,9.70
2019-05-11T20:38:38.403Z,9.70
2019-05-11T20:41:08.386Z,9.80
2019-05-11T20:43:37.352Z,9.80
2019-05-11T20:46:08.210Z,9.80
2019-05-11T20:48:38.238Z,9.80
2019-05-11T20:51:08.096Z,9.80
2019-05-11T20:53:38.750Z,9.80
2019-05-11T20:56:08.676Z,9.80
2019-05-11T20:58:58.776Z,9.80
2019-05-11T21:01:28.662Z,9.80
2019-05-11T21:03:58.875Z,9.80
2019-05-11T21:06:29.552Z,9.80
2019-05-11T21:08:58.366Z,9.80
2019-05-11T21:11:27.158Z,9.80
2019-05-11T21:13:55.993Z,9.80
2019-05-11T21:16:24.782Z,9.80
2019-05-11T21:18:53.560Z,9.80
2019-05-11T21:21:22.524Z,9.80
2019-05-11T21:23:51.310Z,9.80
2019-05-11T21:26:20.157Z,9.80
2019-05-11T21:28:48.960Z,9.80
2019-05-11T21:31:18.592Z,9.80
2019-05-11T21:33:47.605Z,9.80
2019-05-11T21:36:17.975Z,9.80
2019-05-11T21:38:48.173Z,9.90
2019-05-11T21:41:17.351Z,9.90
2019-05-11T21:43:48.196Z,9.90
2019-05-11T21:46:18.065Z,9.90
2019-05-11T21:48:47.850Z,10.00
2019-05-11T21:51:18.120Z,10.00
2019-05-11T21:53:48.706Z,10.00
2019-05-11T21:56:18.736Z,10.00
2019-05-11T21:58:47.973Z,9.90
2019-05-11T22:01:18.417Z,9.90
2019-05-11T22:03:47.996Z,9.80
2019-05-11T22:06:16.934Z,9.80
2019-05-11T22:08:48.255Z,9.80
2019-05-11T22:11:17.965Z,9.80
2019-05-11T22:13:48.433Z,9.80
2019-05-11T22:16:17.510Z,9.80
2019-05-11T22:18:48.395Z,9.80
2019-05-11T22:21:18.761Z,9.80
2019-05-11T22:23:50.419Z,9.80
2019-05-11T22:26:18.070Z,9.90
2019-05-11T22:28:48.260Z,9.90
2019-05-11T22:31:18.211Z,9.90
2019-05-11T22:33:48.040Z,9.90
2019-05-11T22:36:16.947Z,9.90
2019-05-11T22:38:48.124Z,9.80
2019-05-11T22:41:18.009Z,9.90
2019-05-11T22:43:48.559Z,9.90
2019-05-11T22:46:17.736Z,10.00
2019-05-11T22:48:48.911Z,10.00
2019-05-11T22:51:18.348Z,9.90
2019-05-11T22:53:50.202Z,9.90
2019-05-11T22:56:20.071Z,9.90
2019-05-11T22:58:49.989Z,9.90
2019-05-11T23:01:18.878Z,9.90
2019-05-11T23:03:47.694Z,9.90
2019-05-11T23:06:18.041Z,9.90
2019-05-11T23:08:48.332Z,9.90
2019-05-11T23:11:18.195Z,9.90
2019-05-11T23:13:47.855Z,9.90
2019-05-11T23:16:18.055Z,9.80
2019-05-11T23:18:48.091Z,9.80
2019-05-11T23:21:17.142Z,9.80
2019-05-11T23:23:47.857Z,9.90
2019-05-11T23:26:17.789Z,9.90
2019-05-11T23:28:48.650Z,9.90
2019-05-11T23:31:17.599Z,9.90
2019-05-11T23:33:46.488Z,9.90
2019-05-11T23:36:15.354Z,9.80
2019-05-11T23:38:44.235Z,9.80
2019-05-11T23:41:24.099Z,9.70
2019-05-11T23:43:43.627Z,9.70
2019-05-11T23:46:12.419Z,9.70
2019-05-11T23:48:41.260Z,9.70
2019-05-11T23:51:10.223Z,9.70
2019-05-11T23:53:39.038Z,9.70
2019-05-11T23:56:07.879Z,9.60
2019-05-11T23:58:38.968Z,9.60
